createdAt,value
2018-02-20T00:02:03.027Z,2.50
2018-02-20T00:04:30.592Z,2.50
2018-02-20T00:06:58.109Z,2.40
2018-02-20T00:09:25.616Z,2.40
2018-02-20T00:11:53.116Z,2.50
2018-02-20T00:14:21.392Z,2.60
2018-02-20T00:16:49.103Z,2.60
2018-02-20T00:19:16.644Z,2.60
2018-02-20T00:21:44.295Z,2.60
2018-02-20T00:24:12.128Z,2.60
2018-02-20T00:26:39.792Z,2.60
2018-02-20T00:29:07.312Z,2.60
2018-02-20T00:31:35.073Z,2.60
2018-02-20T00:34:02.608Z,2.60
2018-02-20T00:36:30.263Z,2.60
2018-02-20T00:38:57.779Z,2.60
2018-02-20T00:41:25.280Z,2.50
2018-02-20T00:43:52.910Z,2.60
2018-02-20T00:46:20.604Z,2.50
2018-02-20T00:48:48.113Z,2.30
2018-02-20T00:51:16.376Z,2.20
2018-02-20T00:53:44.083Z,2.20
2018-02-20T00:56:11.768Z,2.20
2018-02-20T00:58:39.268Z,2.20
2018-02-20T01:01:06.785Z,2.20
2018-02-20T01:03:34.276Z,2.30
2018-02-20T01:06:01.917Z,2.20
2018-02-20T01:08:29.692Z,2.30
2018-02-20T01:10:57.192Z,2.30
2018-02-20T01:13:24.699Z,2.10
2018-02-20T01:15:52.199Z,2.10
2018-02-20T01:18:20.475Z,2.10
2018-02-20T01:20:47.979Z,2.10
2018-02-20T01:23:15.631Z,2.20
2018-02-20T01:25:43.136Z,2.20
2018-02-20T01:28:10.644Z,2.20
2018-02-20T01:30:38.327Z,2.10
2018-02-20T01:33:05.832Z,2.20
2018-02-20T01:35:33.547Z,2.20
2018-02-20T01:38:01.060Z,2.20
2018-02-20T01:40:28.772Z,2.10
2018-02-20T01:42:56.278Z,2.00
2018-02-20T01:45:23.987Z,1.90
2018-02-20T01:47:51.752Z,2.00
2018-02-20T01:50:19.259Z,1.90
2018-02-20T01:52:46.972Z,1.80
2018-02-20T01:55:15.091Z,1.80
2018-02-20T01:57:42.588Z,1.80
2018-02-20T02:00:10.270Z,1.90
2018-02-20T02:02:38.019Z,1.90
2018-02-20T02:05:05.533Z,1.90
2018-02-20T02:07:33.035Z,1.90
2018-02-20T02:10:00.540Z,1.90
2018-02-20T02:12:28.827Z,1.90
2018-02-20T02:14:57.455Z,1.90
2018-02-20T02:17:25.215Z,1.80
2018-02-20T02:19:52.980Z,1.80
2018-02-20T02:22:20.692Z,1.70
2018-02-20T02:24:48.195Z,1.80
2018-02-20T02:27:15.974Z,1.70
2018-02-20T02:29:43.472Z,1.80
2018-02-20T02:32:10.976Z,1.80
2018-02-20T02:34:38.484Z,1.80
2018-02-20T02:37:06.759Z,1.80
2018-02-20T02:39:34.475Z,1.80
2018-02-20T02:42:02.241Z,1.80
2018-02-20T02:44:29.743Z,1.80
2018-02-20T02:46:57.437Z,1.80
2018-02-20T02:49:24.932Z,1.80
2018-02-20T02:51:54.919Z,1.70
2018-02-20T02:54:22.600Z,1.70
2018-02-20T02:56:50.113Z,1.70
2018-02-20T02:59:17.784Z,1.60
2018-02-20T03:01:45.289Z,1.70
2018-02-20T03:04:13.033Z,1.70
2018-02-20T03:06:40.531Z,1.50
2018-02-20T03:09:08.602Z,1.60
2018-02-20T03:11:36.095Z,1.70
2018-02-20T03:14:03.860Z,1.70
2018-02-20T03:16:31.483Z,1.60
2018-02-20T03:18:58.999Z,1.70
2018-02-20T03:21:26.505Z,1.70
2018-02-20T03:23:54.228Z,1.70
2018-02-20T03:26:21.983Z,1.70
2018-02-20T03:28:49.492Z,1.60
2018-02-20T03:31:16.997Z,1.60
2018-02-20T03:33:44.668Z,1.70
2018-02-20T03:36:12.168Z,1.60
2018-02-20T03:38:39.939Z,1.50
2018-02-20T03:41:07.395Z,1.50
2018-02-20T03:43:35.122Z,1.50
2018-02-20T03:46:04.132Z,1.50
2018-02-20T03:48:31.863Z,1.50
2018-02-20T03:50:59.380Z,1.50
2018-02-20T03:53:27.004Z,1.50
2018-02-20T03:55:54.516Z,1.50
2018-02-20T03:58:22.016Z,1.50
2018-02-20T04:00:49.767Z,1.50
2018-02-20T04:03:17.259Z,1.40
2018-02-20T04:05:44.800Z,1.30
2018-02-20T04:08:12.319Z,1.30
2018-02-20T04:10:40.481Z,1.30
2018-02-20T04:13:07.975Z,1.30
2018-02-20T04:15:35.493Z,1.30
2018-02-20T04:18:03.190Z,1.40
2018-02-20T04:20:30.984Z,1.40
2018-02-20T04:22:58.704Z,1.30
2018-02-20T04:25:26.214Z,1.30
2018-02-20T04:27:53.939Z,1.40
2018-02-20T04:30:21.447Z,1.40
2018-02-20T04:32:49.103Z,1.40
2018-02-20T04:35:16.616Z,1.30
2018-02-20T04:37:44.978Z,1.30
2018-02-20T04:40:12.622Z,1.30
2018-02-20T04:42:40.195Z,1.40
2018-02-20T04:45:07.705Z,1.30
2018-02-20T04:47:35.467Z,1.30
2018-02-20T04:50:03.189Z,1.30
2018-02-20T04:52:30.959Z,1.20
2018-02-20T04:54:58.497Z,1.20
2018-02-20T04:57:26.175Z,1.20
2018-02-20T04:59:53.671Z,1.10
2018-02-20T05:02:21.391Z,1.10
2018-02-20T05:04:48.892Z,1.20
2018-02-20T05:07:16.404Z,1.10
2018-02-20T05:09:44.063Z,1.10
2018-02-20T05:12:11.575Z,1.20
2018-02-20T05:14:39.079Z,1.20
2018-02-20T05:17:06.713Z,1.20
2018-02-20T05:19:34.448Z,1.20
2018-02-20T05:22:02.282Z,1.20
2018-02-20T05:24:30.014Z,1.20
2018-02-20T05:26:57.788Z,1.30
2018-02-20T05:29:25.339Z,1.30
2018-02-20T05:31:52.851Z,1.30
2018-02-20T05:34:21.392Z,1.20
2018-02-20T05:36:48.905Z,1.20
2018-02-20T05:39:16.567Z,1.20
2018-02-20T05:41:44.088Z,1.20
2018-02-20T05:44:13.111Z,1.20
2018-02-20T05:46:40.923Z,1.20
2018-02-20T05:49:08.432Z,1.20
2018-02-20T05:51:36.704Z,1.20
2018-02-20T05:54:04.206Z,1.10
2018-02-20T05:56:31.698Z,1.20
2018-02-20T05:58:59.372Z,1.20
2018-02-20T06:01:27.676Z,1.10
2018-02-20T06:03:55.237Z,1.10
2018-02-20T06:06:24.199Z,1.10
2018-02-20T06:08:51.695Z,1.10
2018-02-20T06:11:19.214Z,1.10
2018-02-20T06:13:47.484Z,1.00
2018-02-20T06:16:15.228Z,1.00
2018-02-20T06:18:43.160Z,1.00
2018-02-20T06:21:10.690Z,1.00
2018-02-20T06:23:38.196Z,1.00
2018-02-20T06:26:05.691Z,1.10
2018-02-20T06:28:33.208Z,1.00
2018-02-20T06:31:00.706Z,1.00
2018-02-20T06:33:28.980Z,1.00
2018-02-20T06:35:56.654Z,0.90
2018-02-20T06:38:24.166Z,0.90
2018-02-20T06:40:51.668Z,0.90
2018-02-20T06:43:19.367Z,0.80
2018-02-20T06:45:47.147Z,0.80
2018-02-20T06:48:14.651Z,0.80
2018-02-20T06:50:42.346Z,0.80
2018-02-20T06:53:09.839Z,0.80
2018-02-20T06:55:37.956Z,0.80
2018-02-20T06:58:05.455Z,0.80
2018-02-20T07:00:33.165Z,0.80
2018-02-20T07:03:00.669Z,0.80
2018-02-20T07:05:28.327Z,0.80
2018-02-20T07:07:55.973Z,0.80
2018-02-20T07:10:23.468Z,0.70
2018-02-20T07:12:51.024Z,0.70
2018-02-20T07:15:18.548Z,0.80
2018-02-20T07:17:46.840Z,0.90
2018-02-20T07:20:14.617Z,1.00
2018-02-20T07:22:42.116Z,1.10
2018-02-20T07:25:09.656Z,1.00
2018-02-20T07:27:37.155Z,1.00
2018-02-20T07:30:04.658Z,1.00
2018-02-20T07:32:32.208Z,1.00
2018-02-20T07:34:59.725Z,1.00
2018-02-20T07:37:27.342Z,1.00
2018-02-20T07:39:54.851Z,0.90
2018-02-20T07:42:22.375Z,0.90
2018-02-20T07:44:50.051Z,0.90
2018-02-20T07:47:17.784Z,1.00
2018-02-20T07:49:45.279Z,1.20
2018-02-20T07:52:12.789Z,1.40
2018-02-20T07:54:40.542Z,1.20
2018-02-20T07:57:08.054Z,1.40
2018-02-20T07:59:35.935Z,1.30
2018-02-20T08:02:03.496Z,1.40
2018-02-20T08:04:30.986Z,1.50
2018-02-20T08:06:58.491Z,1.20
2018-02-20T08:09:26.108Z,1.30
2018-02-20T08:11:53.662Z,1.30
2018-02-20T08:14:21.272Z,1.30
2018-02-20T08:16:49.808Z,1.40
2018-02-20T08:19:17.322Z,1.40
2018-02-20T08:21:45.033Z,1.40
2018-02-20T08:24:12.563Z,1.40
2018-02-20T08:26:40.035Z,1.60
2018-02-20T08:29:07.601Z,1.50
2018-02-20T08:31:35.098Z,1.50
2018-02-20T08:34:02.609Z,1.60
2018-02-20T08:36:30.114Z,1.70
2018-02-20T08:38:57.801Z,1.70
2018-02-20T08:41:25.300Z,1.70
2018-02-20T08:43:54.430Z,1.90
2018-02-20T08:46:22.699Z,1.90
2018-02-20T08:48:50.407Z,1.90
2018-02-20T08:51:18.715Z,1.90
2018-02-20T08:53:47.157Z,2.10
2018-02-20T08:56:14.660Z,2.10
2018-02-20T08:58:42.166Z,2.10
2018-02-20T09:01:09.668Z,2.20
2018-02-20T09:03:37.300Z,2.30
2018-02-20T09:06:05.372Z,2.30
2018-02-20T09:08:32.880Z,2.40
2018-02-20T09:11:00.568Z,2.50
2018-02-20T09:13:28.088Z,2.60
2018-02-20T09:15:55.803Z,2.80
2018-02-20T09:18:23.303Z,2.80
2018-02-20T09:20:50.805Z,2.80
2018-02-20T09:23:18.438Z,2.90
2018-02-20T09:25:45.932Z,2.80
2018-02-20T09:28:13.437Z,3.00
2018-02-20T09:30:40.948Z,3.00
2018-02-20T09:33:08.825Z,3.20
2018-02-20T09:35:36.387Z,3.30
2018-02-20T09:38:03.884Z,3.40
2018-02-20T09:40:31.621Z,3.40
2018-02-20T09:42:59.379Z,3.40
2018-02-20T09:45:27.132Z,3.60
2018-02-20T09:47:54.640Z,3.60
2018-02-20T09:50:22.536Z,3.70
2018-02-20T09:52:50.299Z,3.70
2018-02-20T09:55:17.791Z,3.70
2018-02-20T09:57:45.335Z,3.80
2018-02-20T10:00:13.139Z,3.90
2018-02-20T10:02:40.635Z,3.90
2018-02-20T10:05:08.504Z,3.90
2018-02-20T10:07:35.982Z,3.80
2018-02-20T10:10:03.517Z,3.80
2018-02-20T10:12:31.028Z,3.90
2018-02-20T10:14:58.534Z,4.00
2018-02-20T10:17:26.041Z,4.00
2018-02-20T10:19:53.548Z,4.10
2018-02-20T10:22:21.058Z,4.10
2018-02-20T10:24:48.562Z,4.10
2018-02-20T10:27:16.071Z,4.20
2018-02-20T10:29:43.808Z,4.30
2018-02-20T10:32:11.581Z,4.20
2018-02-20T10:34:39.091Z,4.20
2018-02-20T10:37:06.604Z,4.40
2018-02-20T10:39:34.204Z,4.50
2018-02-20T10:42:01.714Z,4.50
2018-02-20T10:44:29.477Z,4.40
2018-02-20T10:46:57.005Z,4.50
2018-02-20T10:49:24.684Z,4.50
2018-02-20T10:51:52.569Z,4.70
2018-02-20T10:54:20.212Z,4.60
2018-02-20T10:56:47.986Z,4.70
2018-02-20T10:59:15.505Z,4.80
2018-02-20T11:01:43.497Z,4.70
2018-02-20T11:04:10.991Z,4.80
2018-02-20T11:06:38.611Z,4.70
2018-02-20T11:09:06.132Z,4.60
2018-02-20T11:11:33.630Z,4.70
2018-02-20T11:14:01.407Z,4.90
2018-02-20T11:16:28.932Z,4.80
2018-02-20T11:18:56.421Z,4.70
2018-02-20T11:21:23.928Z,4.60
2018-02-20T11:23:51.437Z,4.60
2018-02-20T11:26:18.991Z,4.70
2018-02-20T11:28:46.635Z,4.70
2018-02-20T11:31:14.211Z,4.80
2018-02-20T11:33:41.774Z,5.00
2018-02-20T11:36:09.261Z,5.10
2018-02-20T11:38:36.950Z,5.10
2018-02-20T11:41:04.419Z,5.10
2018-02-20T11:43:32.080Z,5.30
2018-02-20T11:45:59.582Z,5.20
2018-02-20T11:48:27.090Z,5.30
2018-02-20T11:50:54.782Z,5.40
2018-02-20T11:53:22.293Z,5.40
2018-02-20T11:55:50.002Z,5.30
2018-02-20T11:58:17.511Z,5.30
2018-02-20T12:00:45.012Z,5.30
2018-02-20T12:03:12.668Z,5.50
2018-02-20T12:05:40.858Z,5.30
2018-02-20T12:08:08.574Z,5.30
2018-02-20T12:10:36.868Z,5.20
2018-02-20T12:13:04.376Z,4.90
2018-02-20T12:15:32.112Z,5.00
2018-02-20T12:17:59.907Z,4.80
2018-02-20T12:20:27.661Z,4.90
2018-02-20T12:22:56.666Z,4.80
2018-02-20T12:25:24.216Z,4.80
2018-02-20T12:27:51.724Z,4.90
2018-02-20T12:30:19.306Z,5.00
2018-02-20T12:32:46.810Z,5.10
2018-02-20T12:35:14.323Z,5.20
2018-02-20T12:37:41.826Z,5.20
2018-02-20T12:40:09.408Z,5.10
2018-02-20T12:42:36.929Z,5.20
2018-02-20T12:45:04.701Z,5.30
2018-02-20T12:47:32.205Z,5.30
2018-02-20T12:49:59.879Z,5.10
2018-02-20T12:52:27.438Z,5.20
2018-02-20T12:54:55.103Z,5.50
2018-02-20T12:57:22.614Z,5.40
2018-02-20T12:59:51.206Z,5.40
2018-02-20T13:02:18.708Z,5.20
2018-02-20T13:04:46.460Z,5.10
2018-02-20T13:07:13.973Z,5.00
2018-02-20T13:09:41.673Z,4.70
2018-02-20T13:12:09.461Z,4.70
2018-02-20T13:14:37.257Z,4.50
2018-02-20T13:17:04.714Z,4.50
2018-02-20T13:19:32.227Z,4.70
2018-02-20T13:21:59.950Z,4.50
2018-02-20T13:24:27.618Z,4.50
2018-02-20T13:26:55.342Z,4.10
2018-02-20T13:29:22.861Z,4.10
2018-02-20T13:31:50.371Z,4.40
2018-02-20T13:34:17.880Z,4.50
2018-02-20T13:36:45.392Z,4.50
2018-02-20T13:39:13.798Z,4.70
2018-02-20T13:41:41.375Z,4.70
2018-02-20T13:44:08.897Z,4.80
2018-02-20T13:46:38.835Z,4.80
2018-02-20T13:49:06.515Z,4.70
2018-02-20T13:51:34.270Z,4.70
2018-02-20T13:54:02.043Z,4.50
2018-02-20T13:56:29.563Z,4.40
2018-02-20T13:58:57.443Z,4.50
2018-02-20T14:01:24.978Z,4.50
2018-02-20T14:03:52.483Z,4.60
2018-02-20T14:06:19.988Z,4.80
2018-02-20T14:08:47.675Z,4.70
2018-02-20T14:11:15.184Z,4.40
2018-02-20T14:13:42.794Z,4.30
2018-02-20T14:16:10.356Z,4.50
2018-02-20T14:18:38.158Z,4.50
2018-02-20T14:21:05.903Z,4.50
2018-02-20T14:23:33.424Z,4.30
2018-02-20T14:26:00.934Z,4.40
2018-02-20T14:28:28.560Z,4.60
2018-02-20T14:30:56.073Z,4.50
2018-02-20T14:33:23.776Z,4.60
2018-02-20T14:35:51.563Z,4.50
2018-02-20T14:38:19.075Z,4.40
2018-02-20T14:40:46.770Z,4.50
2018-02-20T14:43:14.547Z,4.40
2018-02-20T14:45:42.064Z,4.50
2018-02-20T14:48:09.615Z,4.50
2018-02-20T14:50:38.186Z,4.60
2018-02-20T14:53:05.684Z,4.60
2018-02-20T14:55:33.338Z,4.80
2018-02-20T14:58:01.447Z,4.80
2018-02-20T15:00:30.027Z,4.70
2018-02-20T15:02:57.552Z,4.90
2018-02-20T15:05:25.052Z,4.70
2018-02-20T15:07:52.773Z,4.50
2018-02-20T15:10:20.263Z,4.40
2018-02-20T15:12:47.778Z,4.40
2018-02-20T15:15:15.439Z,4.50
2018-02-20T15:17:42.939Z,4.40
2018-02-20T15:20:10.455Z,4.30
2018-02-20T15:22:37.955Z,4.30
2018-02-20T15:25:05.470Z,4.30
2018-02-20T15:27:33.092Z,4.40
2018-02-20T15:30:00.833Z,4.30
2018-02-20T15:32:28.331Z,4.20
2018-02-20T15:34:56.060Z,4.00
2018-02-20T15:37:23.823Z,4.10
2018-02-20T15:39:51.351Z,3.90
2018-02-20T15:42:18.883Z,4.00
2018-02-20T15:44:47.160Z,4.20
2018-02-20T15:47:14.742Z,4.20
2018-02-20T15:49:42.400Z,3.90
2018-02-20T15:52:10.119Z,4.00
2018-02-20T15:54:37.828Z,3.80
2018-02-20T15:57:05.541Z,3.70
2018-02-20T15:59:33.056Z,3.80
2018-02-20T16:02:00.963Z,3.80
2018-02-20T16:04:28.616Z,3.70
2018-02-20T16:06:56.401Z,3.80
2018-02-20T16:09:23.982Z,3.80
2018-02-20T16:11:52.129Z,3.70
2018-02-20T16:14:20.472Z,3.70
2018-02-20T16:16:48.050Z,3.70
2018-02-20T16:19:15.653Z,3.50
2018-02-20T16:21:43.237Z,3.60
2018-02-20T16:24:10.788Z,3.60
2018-02-20T16:26:38.490Z,3.70
2018-02-20T16:29:07.599Z,3.60
2018-02-20T16:31:35.880Z,3.70
2018-02-20T16:34:03.959Z,3.70
2018-02-20T16:36:31.470Z,3.60
2018-02-20T16:38:59.021Z,3.70
2018-02-20T16:41:26.606Z,3.60
2018-02-20T16:43:54.837Z,3.40
2018-02-20T16:46:22.344Z,3.40
2018-02-20T16:48:49.876Z,3.40
2018-02-20T16:51:17.638Z,3.40
2018-02-20T16:53:45.415Z,3.30
2018-02-20T16:56:12.926Z,3.40
2018-02-20T16:58:40.432Z,3.40
2018-02-20T17:01:08.051Z,3.20
2018-02-20T17:03:35.556Z,3.20
2018-02-20T17:06:03.187Z,3.30
2018-02-20T17:08:30.755Z,3.30
2018-02-20T17:10:58.283Z,3.30
2018-02-20T17:13:26.490Z,3.30
2018-02-20T17:15:54.047Z,3.30
2018-02-20T17:18:21.548Z,3.40
2018-02-20T17:20:49.065Z,3.40
2018-02-20T17:23:16.726Z,3.50
2018-02-20T17:25:45.365Z,3.40
2018-02-20T17:28:13.183Z,3.50
2018-02-20T17:30:40.936Z,3.60
2018-02-20T17:33:08.444Z,3.60
2018-02-20T17:35:36.528Z,3.60
2018-02-20T17:38:04.231Z,3.40
2018-02-20T17:40:31.742Z,3.40
2018-02-20T17:42:59.459Z,3.20
2018-02-20T17:45:27.000Z,3.20
2018-02-20T17:47:54.682Z,3.20
2018-02-20T17:50:23.943Z,3.20
2018-02-20T17:52:51.468Z,3.20
2018-02-20T17:55:19.196Z,3.20
2018-02-20T17:57:46.955Z,3.10
2018-02-20T18:00:14.479Z,3.00
2018-02-20T18:02:41.990Z,3.00
2018-02-20T18:05:10.264Z,2.80
2018-02-20T18:07:37.770Z,2.80
2018-02-20T18:10:05.310Z,2.80
2018-02-20T18:12:32.868Z,2.90
2018-02-20T18:15:00.405Z,2.90
2018-02-20T18:17:28.233Z,2.80
2018-02-20T18:19:55.782Z,2.60
2018-02-20T18:22:23.716Z,2.60
2018-02-20T18:24:51.436Z,2.70
2018-02-20T18:27:19.208Z,2.60
2018-02-20T18:29:46.720Z,2.70
2018-02-20T18:32:14.416Z,2.70
2018-02-20T18:34:41.924Z,3.30
2018-02-20T18:37:09.434Z,3.10
2018-02-20T18:39:36.943Z,3.00
2018-02-20T18:42:04.551Z,2.90
2018-02-20T18:44:32.268Z,2.70
2018-02-20T18:46:59.887Z,2.70
2018-02-20T18:49:27.399Z,2.30
2018-02-20T18:51:55.169Z,2.60
2018-02-20T18:54:22.738Z,2.60
2018-02-20T18:56:50.304Z,2.60
2018-02-20T18:59:17.852Z,2.60
2018-02-20T19:01:45.385Z,2.50
2018-02-20T19:04:12.954Z,2.50
2018-02-20T19:06:41.283Z,2.50
2018-02-20T19:09:08.874Z,2.40
2018-02-20T19:11:36.489Z,2.60
2018-02-20T19:14:04.250Z,2.50
2018-02-20T19:16:32.010Z,2.40
2018-02-20T19:19:01.318Z,2.20
2018-02-20T19:21:29.031Z,2.30
2018-02-20T19:23:56.567Z,2.10
2018-02-20T19:26:24.085Z,2.10
2018-02-20T19:28:51.620Z,2.20
2018-02-20T19:31:19.852Z,2.20
2018-02-20T19:33:49.324Z,2.20
2018-02-20T19:36:17.204Z,2.20
2018-02-20T19:38:44.723Z,2.10
2018-02-20T19:41:12.428Z,2.10
2018-02-20T19:43:39.951Z,2.10
2018-02-20T19:46:07.456Z,2.10
2018-02-20T19:48:35.104Z,2.20
2018-02-20T19:51:02.624Z,2.10
2018-02-20T19:53:30.134Z,2.30
2018-02-20T19:55:58.412Z,2.30
2018-02-20T19:58:25.952Z,2.20
2018-02-20T20:00:53.616Z,2.20
2018-02-20T20:03:21.128Z,2.10
2018-02-20T20:05:48.647Z,2.10
2018-02-20T20:08:16.931Z,2.20
2018-02-20T20:10:44.454Z,2.20
2018-02-20T20:13:11.980Z,2.30
2018-02-20T20:15:39.499Z,2.20
2018-02-20T20:18:07.965Z,2.30
2018-02-20T20:20:37.114Z,2.20
2018-02-20T20:23:03.126Z,2.20
2018-02-20T20:25:30.648Z,2.10
2018-02-20T20:27:58.434Z,1.70
2018-02-20T20:30:27.417Z,2.00
2018-02-20T20:32:54.924Z,2.00
2018-02-20T20:35:22.436Z,1.90
2018-02-20T20:37:50.715Z,1.80
2018-02-20T20:40:18.211Z,1.80
2018-02-20T20:42:45.912Z,1.90
2018-02-20T20:45:14.252Z,2.00
2018-02-20T20:47:41.764Z,2.00
2018-02-20T20:50:10.111Z,2.00
2018-02-20T20:52:37.644Z,2.00
2018-02-20T20:55:05.218Z,2.10
2018-02-20T20:57:32.748Z,2.00
2018-02-20T21:00:00.258Z,1.90
2018-02-20T21:02:27.992Z,1.90
2018-02-20T21:04:55.511Z,1.90
2018-02-20T21:07:23.036Z,1.80
2018-02-20T21:09:50.646Z,1.60
2018-02-20T21:12:18.161Z,1.60
2018-02-20T21:14:45.981Z,1.40
2018-02-20T21:17:13.509Z,1.50
2018-02-20T21:19:41.040Z,1.60
2018-02-20T21:22:08.599Z,1.70
2018-02-20T21:24:36.114Z,1.60
2018-02-20T21:27:03.699Z,1.10
2018-02-20T21:29:31.212Z,1.10
2018-02-20T21:32:00.639Z,1.20
2018-02-20T21:34:28.689Z,1.40
2018-02-20T21:36:56.187Z,1.40
2018-02-20T21:39:23.732Z,1.50
2018-02-20T21:41:51.236Z,1.50
2018-02-20T21:44:18.746Z,1.50
2018-02-20T21:46:46.248Z,1.30
2018-02-20T21:49:14.287Z,1.20
2018-02-20T21:51:43.307Z,1.30
2018-02-20T21:54:11.047Z,1.30
2018-02-20T21:56:38.540Z,1.30
2018-02-20T21:59:06.058Z,1.20
2018-02-20T22:01:33.576Z,1.30
2018-02-20T22:04:01.076Z,1.20
2018-02-20T22:06:29.345Z,1.10
2018-02-20T22:08:56.968Z,1.10
2018-02-20T22:11:24.699Z,1.30
2018-02-20T22:13:52.243Z,1.30
2018-02-20T22:16:19.748Z,1.20
2018-02-20T22:18:47.407Z,1.10
2018-02-20T22:21:14.938Z,1.10
2018-02-20T22:23:43.935Z,1.10
2018-02-20T22:26:11.445Z,1.10
2018-02-20T22:28:39.120Z,1.10
2018-02-20T22:31:06.627Z,1.00
2018-02-20T22:33:34.132Z,0.90
2018-02-20T22:36:01.773Z,0.80
2018-02-20T22:38:29.289Z,1.00
2018-02-20T22:40:57.011Z,1.00
2018-02-20T22:43:24.516Z,1.00
2018-02-20T22:45:52.220Z,0.90
2018-02-20T22:48:19.734Z,1.10
2018-02-20T22:50:47.435Z,1.00
2018-02-20T22:53:14.942Z,1.00
2018-02-20T22:55:42.655Z,1.00
2018-02-20T22:58:10.423Z,0.90
2018-02-20T23:00:37.941Z,0.80
2018-02-20T23:03:05.439Z,0.60
2018-02-20T23:05:33.006Z,0.90
2018-02-20T23:08:00.701Z,0.80
2018-02-20T23:10:28.967Z,0.80
2018-02-20T23:12:56.473Z,0.70
2018-02-20T23:15:23.980Z,0.80
2018-02-20T23:17:51.489Z,0.90
2018-02-20T23:20:19.076Z,0.90
2018-02-20T23:22:46.592Z,1.00
2018-02-20T23:25:14.105Z,1.00
2018-02-20T23:27:41.771Z,1.10
2018-02-20T23:30:09.280Z,1.00
2018-02-20T23:32:36.952Z,0.90
2018-02-20T23:35:04.727Z,0.90
2018-02-20T23:37:32.236Z,0.80
2018-02-20T23:39:59.743Z,0.90
2018-02-20T23:42:28.024Z,0.90
2018-02-20T23:44:55.560Z,1.00
2018-02-20T23:47:23.236Z,1.00
2018-02-20T23:49:51.012Z,1.00
2018-02-20T23:52:18.768Z,1.00
2018-02-20T23:54:46.288Z,0.90
2018-02-20T23:57:13.797Z,0.70
2018-02-20T23:59:41.403Z,0.70
